Overview Statistics Trail Chart Weather Telemetry Raw packets
 

This is the latest recevied weather packets stored in our database for station/object ED4YAF-13. If no packets are shown the sender has not sent any weather packets the latest 10 day(s).

<< 32 33 34 35 36 37 >>
Time Temp. Humidity Pressure Rain* Wind** Luminosity Snow
1787819208 12.78° C 68% 1013.1 hPa - - - -
1787818308 12.78° C 69% 1013.2 hPa - - - -
1787817393 12.22° C 71% 1013.3 hPa - - - -
1787816500 11.11° C 73% 1014.2 hPa - - - -
1787815593 11.11° C 75% 1014.2 hPa - - - -
1787814693 10.56° C 77% 1014.3 hPa - - - -
1787813793 10.56° C 77% 1014.3 hPa - - - -
1787812186 10.56° C 77% 1014.1 hPa - - - -
1787811267 10° C 77% 1014.2 hPa - - - -
1787810354 10° C 79% 1014.3 hPa - - - -
1787809445 9.44° C 80% 1014.5 hPa - - - -
1787808546 8.89° C 79% 1014.5 hPa - - - -
1787807644 8.89° C 78% 1014.3 hPa - - - -
1787806745 9.44° C 75% 1014.1 hPa - - - -
1787805838 9.44° C 73% 1013.8 hPa - - - -
1787804925 9.44° C 72% 1013.8 hPa - - - -
1787804032 9.44° C 71% 1013.9 hPa - - - -
1787803132 10° C 69% 1013.9 hPa - - - -
1787801316 10.56° C 67% 1013.7 hPa - - - -
1787800409 10.56° C 66% 1013.7 hPa - - - -
1787799516 10.56° C 65% 1013.8 hPa - - - -
1787798608 10.56° C 64% 1014 hPa - - - -
1787797708 10.56° C 63% 1014.1 hPa - - - -
1787796808 10.56° C 62% 1014.3 hPa - - - -
1787795899 10.56° C 61% 1014.2 hPa - - - -

* Rain since midnight (hover to see other rain measurements)
** Current wind speed in m/s (hover to see current wind gust speed)